Time;durP1;ratioP1;P1;durP2;ratioP2;P2;SDS_P1;SDS_P2;PMS_P1;PMS_P2;Temp;Humidity;BMP_temperature;BMP_pressure;BME280_temperature;BME280_humidity;BME280_pressure;Samples;Min_cycle;Max_cycle;Signal;HPM_P1;HPM_P2
2023/02/12 00:00:02;;;;;;;0.40;0.40;;;1.10;92.40;;;;;;5033551;28;20184;-66
2023/02/12 00:02:28;;;;;;;1.15;0.70;;;1.10;92.30;;;;;;5033473;28;20231;-67
2023/02/12 00:04:53;;;;;;;0.40;0.40;;;1.10;92.50;;;;;;5033218;28;20267;-66
2023/02/12 00:07:19;;;;;;;0.30;0.30;;;1.20;92.40;;;;;;5033086;28;20208;-67
2023/02/12 00:09:45;;;;;;;0.40;0.40;;;1.30;91.90;;;;;;5033207;28;20203;-67
2023/02/12 00:12:10;;;;;;;3.53;0.80;;;1.30;91.80;;;;;;5033172;28;20707;-66
2023/02/12 00:14:37;;;;;;;0.30;0.30;;;1.30;91.90;;;;;;5033274;28;20170;-67
2023/02/12 00:17:02;;;;;;;0.55;0.55;;;1.30;91.80;;;;;;5033002;28;20632;-66
2023/02/12 00:19:29;;;;;;;3.90;1.20;;;1.40;91.70;;;;;;5033161;28;20230;-66
2023/02/12 00:21:54;;;;;;;0.40;0.40;;;1.40;91.60;;;;;;5033072;28;20434;-67
2023/02/12 00:24:20;;;;;;;0.40;0.40;;;1.50;91.70;;;;;;5033164;28;20518;-67
2023/02/12 00:26:47;;;;;;;0.40;0.40;;;1.50;91.70;;;;;;5033078;28;20199;-67
2023/02/12 00:29:13;;;;;;;0.50;0.50;;;1.40;92.10;;;;;;5031764;28;20203;-66
2023/02/12 00:31:39;;;;;;;0.40;0.40;;;1.30;92.40;;;;;;5033065;28;20282;-67
2023/02/12 00:34:04;;;;;;;0.50;0.50;;;1.30;92.60;;;;;;5032998;28;20252;-67
2023/02/12 00:36:31;;;;;;;0.30;0.30;;;1.30;92.60;;;;;;5032872;28;20165;-67
2023/02/12 00:38:57;;;;;;;0.30;0.30;;;1.30;92.60;;;;;;5031995;28;20173;-66
2023/02/12 00:41:23;;;;;;;2.50;2.42;;;1.30;92.70;;;;;;5036790;28;20202;-67
2023/02/12 00:43:49;;;;;;;0.60;0.60;;;1.30;92.80;;;;;;5036593;28;20188;-66
2023/02/12 00:46:15;;;;;;;0.50;0.50;;;1.40;93.00;;;;;;5036590;28;20256;-67
2023/02/12 00:48:40;;;;;;;0.33;0.33;;;1.50;92.90;;;;;;5036998;28;20454;-66
2023/02/12 00:51:07;;;;;;;0.60;0.60;;;1.50;92.90;;;;;;5036488;28;20183;-66
2023/02/12 00:53:33;;;;;;;0.40;0.40;;;1.50;93.00;;;;;;5036750;28;20637;-66
2023/02/12 00:55:59;;;;;;;0.70;0.60;;;1.40;93.30;;;;;;5036406;28;20254;-67
2023/02/12 00:58:25;;;;;;;3.33;0.80;;;1.40;93.60;;;;;;5035318;28;20766;-67
2023/02/12 01:00:50;;;;;;;0.30;0.30;;;1.40;93.70;;;;;;5036612;28;20910;-67
2023/02/12 01:03:16;;;;;;;2.93;2.30;;;1.30;93.80;;;;;;5036352;28;20176;-65
2023/02/12 01:05:42;;;;;;;0.30;0.30;;;1.10;94.10;;;;;;5036306;28;20715;-66
2023/02/12 01:08:14;;;;;;;0.50;0.50;;;1.10;94.70;;;;;;5036121;28;20196;-66
2023/02/12 01:10:41;;;;;;;0.73;0.73;;;1.20;94.70;;;;;;5036769;28;20395;-67
2023/02/12 01:13:06;;;;;;;1.33;1.23;;;1.30;94.70;;;;;;5036090;28;20193;-66
2023/02/12 01:15:33;;;;;;;0.50;0.50;;;1.20;94.50;;;;;;5035032;28;20261;-66
2023/02/12 01:17:59;;;;;;;1.67;1.47;;;1.30;94.60;;;;;;5035820;28;20172;-67
2023/02/12 01:20:25;;;;;;;0.40;0.40;;;1.20;94.60;;;;;;5034781;28;20632;-66
2023/02/12 01:22:51;;;;;;;3.15;3.03;;;1.30;94.70;;;;;;5035972;28;20425;-66
2023/02/12 01:25:17;;;;;;;1.58;1.48;;;1.30;94.80;;;;;;5036244;28;20176;-66
2023/02/12 01:27:42;;;;;;;1.05;1.05;;;1.30;94.90;;;;;;5035953;28;20195;-66
2023/02/12 01:30:11;;;;;;;0.30;0.30;;;1.40;95.20;;;;;;5036009;28;20242;-66
2023/02/12 01:32:37;;;;;;;0.40;0.40;;;1.30;94.80;;;;;;5035775;28;20189;-67
2023/02/12 01:35:04;;;;;;;0.50;0.50;;;1.30;95.10;;;;;;5035816;28;20182;-66
2023/02/12 01:37:30;;;;;;;1.85;1.75;;;1.30;95.00;;;;;;5035619;28;20176;-67
2023/02/12 01:39:56;;;;;;;4.15;1.17;;;1.20;94.60;;;;;;5035823;28;20301;-66
2023/02/12 01:42:21;;;;;;;0.50;0.50;;;1.10;94.80;;;;;;5035778;28;20803;-67
2023/02/12 01:45:11;;;;;;;0.77;0.70;;;1.10;95.10;;;;;;5035571;28;20560;-66
2023/02/12 01:47:38;;;;;;;0.75;0.75;;;1.10;95.10;;;;;;5035505;28;20168;-66
2023/02/12 01:50:06;;;;;;;0.45;0.45;;;1.20;95.30;;;;;;5034963;28;20239;-67
2023/02/12 01:52:36;;;;;;;1.85;1.73;;;1.10;95.20;;;;;;5035465;28;20188;-67
2023/02/12 01:55:06;;;;;;;2.97;0.80;;;1.10;95.30;;;;;;5035649;28;20522;-66
2023/02/12 01:57:36;;;;;;;1.15;1.15;;;1.10;95.20;;;;;;5035207;28;20167;-67
2023/02/12 02:00:06;;;;;;;0.40;0.40;;;1.20;95.20;;;;;;5035309;28;20180;-67
2023/02/12 02:02:33;;;;;;;0.40;0.40;;;1.10;95.20;;;;;;5035163;28;20227;-67
2023/02/12 02:05:03;;;;;;;0.50;0.50;;;1.10;95.30;;;;;;5035288;28;20176;-66
2023/02/12 02:07:29;;;;;;;1.13;0.65;;;1.10;95.30;;;;;;5035007;28;20246;-66
2023/02/12 02:09:56;;;;;;;2.05;0.80;;;1.10;95.70;;;;;;5035218;28;20695;-66
2023/02/12 02:15:07;;;;;;;0.50;0.50;;;1.20;96.20;;;;;;5035325;28;20221;-66
2023/02/12 02:17:58;;;;;;;0.30;0.30;;;1.20;96.20;;;;;;5034980;28;20168;-67
2023/02/12 02:20:41;;;;;;;1.92;1.77;;;1.20;96.00;;;;;;5035152;28;20200;-66
2023/02/12 02:23:28;;;;;;;0.30;0.30;;;1.20;96.00;;;;;;5034875;28;20217;-66
2023/02/12 02:26:21;;;;;;;1.77;1.23;;;1.20;96.00;;;;;;5034914;28;20173;-66
2023/02/12 02:29:04;;;;;;;0.93;0.93;;;1.20;96.00;;;;;;5034920;28;20242;-66
2023/02/12 02:31:54;;;;;;;0.30;0.30;;;1.20;96.10;;;;;;5034948;28;20546;-66
2023/02/12 02:34:47;;;;;;;1.75;0.60;;;1.10;96.10;;;;;;5034775;28;20216;-66
2023/02/12 02:37:18;;;;;;;0.30;0.30;;;1.20;96.20;;;;;;5034515;28;20515;-66
2023/02/12 02:40:08;;;;;;;0.50;0.50;;;1.20;96.40;;;;;;5034828;28;20178;-66
2023/02/12 02:42:46;;;;;;;0.30;0.30;;;1.30;96.60;;;;;;5034527;28;20197;-66
2023/02/12 02:45:27;;;;;;;2.13;2.05;;;1.30;96.30;;;;;;5034683;28;20555;-66
2023/02/12 02:48:02;;;;;;;3.35;0.90;;;1.20;96.10;;;;;;5034188;28;20177;-66
2023/02/12 02:50:30;;;;;;;0.40;0.40;;;1.10;96.30;;;;;;5034459;28;20247;-67
2023/02/12 02:53:06;;;;;;;0.50;0.50;;;1.10;96.50;;;;;;5034362;28;20566;-67
2023/02/12 02:55:45;;;;;;;0.50;0.50;;;1.10;96.70;;;;;;5034490;28;20218;-67
2023/02/12 02:58:18;;;;;;;0.68;0.68;;;1.10;96.70;;;;;;5034865;28;20188;-67
2023/02/12 03:00:55;;;;;;;1.13;1.02;;;1.10;96.70;;;;;;5034443;28;20181;-66
2023/02/12 03:03:39;;;;;;;0.30;0.30;;;1.20;96.40;;;;;;5033483;28;20165;-67
2023/02/12 03:06:14;;;;;;;12.57;3.40;;;1.20;96.40;;;;;;5034075;28;20660;-66
2023/02/12 03:08:57;;;;;;;1.25;1.23;;;1.20;96.20;;;;;;5034248;28;20556;-67
2023/02/12 03:11:29;;;;;;;0.40;0.40;;;1.20;96.10;;;;;;5034195;28;20188;-66
2023/02/12 03:13:58;;;;;;;1.25;0.93;;;1.10;96.60;;;;;;5034049;28;20637;-66
2023/02/12 03:16:35;;;;;;;0.40;0.40;;;1.00;96.70;;;;;;5033895;28;20177;-66
2023/02/12 03:19:07;;;;;;;2.97;1.98;;;1.00;96.80;;;;;;5034363;28;20182;-66
2023/02/12 03:21:41;;;;;;;0.70;0.70;;;1.00;96.60;;;;;;5034171;28;20553;-66
2023/02/12 03:24:20;;;;;;;1.23;0.85;;;1.00;96.70;;;;;;5033860;28;20251;-66
2023/02/12 03:26:50;;;;;;;10.70;1.02;;;1.10;96.50;;;;;;5033692;28;20175;-66
2023/02/12 03:29:16;;;;;;;0.45;0.45;;;1.10;96.60;;;;;;5033850;28;20222;-66
2023/02/12 03:31:47;;;;;;;0.43;0.43;;;1.20;96.60;;;;;;5033649;28;20219;-66
2023/02/12 03:34:30;;;;;;;0.40;0.40;;;1.20;96.60;;;;;;5033720;28;20185;-66
2023/02/12 03:37:01;;;;;;;0.35;0.35;;;1.20;96.60;;;;;;5033483;28;20540;-66
2023/02/12 03:39:39;;;;;;;0.60;0.60;;;1.30;96.60;;;;;;5033796;28;20259;-66
2023/02/12 03:42:17;;;;;;;0.35;0.35;;;1.20;96.80;;;;;;5033941;28;20230;-66
2023/02/12 03:44:53;;;;;;;0.38;0.38;;;1.20;97.10;;;;;;5033533;28;20179;-66
2023/02/12 03:47:36;;;;;;;0.50;0.50;;;1.30;97.20;;;;;;5033365;28;20546;-66
2023/02/12 03:50:28;;;;;;;3.40;1.65;;;1.30;96.90;;;;;;5033546;28;20191;-67
2023/02/12 03:52:54;;;;;;;0.50;0.50;;;1.40;96.90;;;;;;5033453;28;20203;-66
2023/02/12 03:55:20;;;;;;;0.67;0.60;;;1.30;96.90;;;;;;5033501;28;20167;-67
2023/02/12 03:57:59;;;;;;;0.30;0.30;;;1.30;97.10;;;;;;5033294;28;20212;-66
2023/02/12 04:00:26;;;;;;;0.52;0.52;;;1.30;97.10;;;;;;5033570;28;20639;-66
2023/02/12 04:02:53;;;;;;;0.70;0.70;;;1.20;97.10;;;;;;5033267;28;20289;-66
2023/02/12 04:05:21;;;;;;;0.30;0.30;;;1.20;96.90;;;;;;5033357;28;20195;-67
2023/02/12 04:07:48;;;;;;;0.40;0.40;;;1.10;96.60;;;;;;5033223;28;20171;-66
2023/02/12 04:10:15;;;;;;;0.30;0.30;;;1.10;96.80;;;;;;5033425;28;20289;-66
2023/02/12 04:13:06;;;;;;;0.40;0.40;;;1.00;96.80;;;;;;5033165;28;20197;-67
2023/02/12 04:15:56;;;;;;;0.30;0.30;;;1.00;96.90;;;;;;5037750;28;20164;-66
2023/02/12 04:18:30;;;;;;;1.33;1.05;;;1.00;97.20;;;;;;5035950;28;20226;-66
2023/02/12 04:21:32;;;;;;;1.63;1.60;;;0.80;97.10;;;;;;5036043;28;20180;-66
2023/02/12 04:24:40;;;;;;;0.40;0.40;;;0.90;97.60;;;;;;5037316;28;20261;-66
2023/02/12 04:27:25;;;;;;;0.68;0.60;;;1.00;97.80;;;;;;5036956;28;20171;-66
2023/02/12 04:30:12;;;;;;;0.45;0.45;;;0.90;97.80;;;;;;5037004;28;20229;-66
2023/02/12 04:32:49;;;;;;;0.40;0.40;;;1.00;97.90;;;;;;5036865;28;20202;-66
2023/02/12 04:35:33;;;;;;;1.85;0.98;;;0.90;98.00;;;;;;5036711;28;20557;-66
2023/02/12 04:38:07;;;;;;;0.30;0.30;;;1.10;98.30;;;;;;5036638;28;20164;-66
2023/02/12 04:40:34;;;;;;;0.93;0.75;;;1.10;98.10;;;;;;5036820;28;20745;-67
2023/02/12 04:43:00;;;;;;;2.38;2.28;;;1.10;98.40;;;;;;5036336;28;20281;-67
2023/02/12 04:45:29;;;;;;;1.27;1.17;;;1.20;98.50;;;;;;5036790;28;20310;-67
2023/02/12 04:47:55;;;;;;;0.30;0.30;;;1.20;98.30;;;;;;5036575;28;20764;-67
2023/02/12 04:50:21;;;;;;;0.60;0.50;;;1.20;98.00;;;;;;5036772;28;20172;-67
2023/02/12 04:52:47;;;;;;;0.40;0.40;;;1.20;97.90;;;;;;5036722;28;20193;-66
2023/02/12 04:55:13;;;;;;;1.03;1.03;;;1.10;98.00;;;;;;5036773;28;20176;-67
2023/02/12 04:57:38;;;;;;;2.40;1.00;;;1.10;98.00;;;;;;5036426;28;20164;-66
2023/02/12 05:00:06;;;;;;;1.30;1.27;;;1.00;97.90;;;;;;5036565;28;20182;-66
2023/02/12 05:02:35;;;;;;;0.50;0.50;;;1.10;97.80;;;;;;5036248;28;20199;-66
2023/02/12 05:05:00;;;;;;;2.22;2.13;;;1.10;97.80;;;;;;5036333;28;20228;-66
2023/02/12 05:07:26;;;;;;;0.33;0.33;;;1.10;97.70;;;;;;5036194;28;20171;-67
2023/02/12 05:09:52;;;;;;;0.50;0.50;;;1.10;97.90;;;;;;5036270;28;20537;-66
2023/02/12 05:12:17;;;;;;;0.40;0.40;;;1.10;98.00;;;;;;5036229;28;20284;-66
2023/02/12 05:14:43;;;;;;;0.63;0.63;;;1.10;98.20;;;;;;5036355;28;20168;-66
2023/02/12 05:17:08;;;;;;;1.03;1.03;;;1.20;98.60;;;;;;5036019;28;20171;-66
2023/02/12 05:19:34;;;;;;;0.40;0.40;;;1.20;98.60;;;;;;5036274;28;20188;-66
2023/02/12 05:22:00;;;;;;;0.50;0.50;;;1.10;98.50;;;;;;5036034;28;20226;-66
2023/02/12 05:24:25;;;;;;;0.30;0.30;;;1.10;98.70;;;;;;5035744;28;20520;-67
2023/02/12 05:26:51;;;;;;;0.83;0.83;;;1.20;98.70;;;;;;5035509;28;20172;-66
2023/02/12 05:29:17;;;;;;;0.30;0.30;;;1.20;98.40;;;;;;5035992;28;20186;-66
2023/02/12 05:31:43;;;;;;;0.88;0.88;;;1.30;98.50;;;;;;5035973;28;20191;-67
2023/02/12 05:34:10;;;;;;;0.53;0.53;;;1.20;98.50;;;;;;5035872;28;20555;-66
2023/02/12 05:36:37;;;;;;;0.82;0.82;;;1.20;98.60;;;;;;5035786;28;20414;-66
2023/02/12 05:39:03;;;;;;;3.10;0.85;;;1.20;98.80;;;;;;5035820;28;20179;-67
2023/02/12 05:41:33;;;;;;;0.55;0.50;;;1.10;99.00;;;;;;5035721;28;20195;-66
2023/02/12 05:43:59;;;;;;;0.70;0.70;;;1.10;99.30;;;;;;5034350;28;20199;-66
2023/02/12 05:46:25;;;;;;;1.07;1.07;;;1.30;99.80;;;;;;5035561;28;20545;-67
2023/02/12 05:48:50;;;;;;;0.40;0.40;;;1.30;99.90;;;;;;5035615;28;20819;-67
2023/02/12 05:51:21;;;;;;;2.50;2.40;;;1.30;99.70;;;;;;5035706;28;20189;-66
2023/02/12 05:53:49;;;;;;;2.88;2.47;;;1.30;99.70;;;;;;5035693;28;20151;-66
2023/02/12 05:56:18;;;;;;;0.82;0.60;;;1.20;99.60;;;;;;5035453;28;20200;-66
2023/02/12 05:58:53;;;;;;;2.88;2.42;;;1.10;99.30;;;;;;5035531;28;20180;-66
2023/02/12 06:01:24;;;;;;;0.60;0.60;;;1.20;99.30;;;;;;5034199;28;20750;-66
2023/02/12 06:03:50;;;;;;;0.50;0.50;;;1.10;99.90;;;;;;5035462;28;20214;-66
2023/02/12 06:06:16;;;;;;;0.30;0.30;;;1.10;99.90;;;;;;5035092;28;20211;-66
2023/02/12 06:08:41;;;;;;;0.60;0.60;;;1.00;99.90;;;;;;5033972;28;20496;-67
2023/02/12 06:11:11;;;;;;;0.90;0.90;;;1.10;99.90;;;;;;5035215;28;20915;-66
2023/02/12 06:13:37;;;;;;;0.50;0.50;;;1.10;99.90;;;;;;5035058;28;20210;-66
2023/02/12 06:16:03;;;;;;;0.50;0.50;;;1.10;99.90;;;;;;5035141;28;20637;-66
2023/02/12 06:18:29;;;;;;;0.90;0.90;;;1.10;99.90;;;;;;5034953;28;20179;-67
2023/02/12 06:20:55;;;;;;;0.30;0.30;;;1.10;99.80;;;;;;5034838;28;20184;-66
2023/02/12 06:23:22;;;;;;;0.40;0.40;;;1.10;99.50;;;;;;5034879;28;20548;-66
2023/02/12 06:25:49;;;;;;;0.50;0.43;;;1.10;99.60;;;;;;5033498;28;20714;-66
2023/02/12 06:28:15;;;;;;;0.30;0.30;;;1.10;99.80;;;;;;5034798;28;20206;-66
2023/02/12 06:30:41;;;;;;;0.30;0.30;;;1.10;99.60;;;;;;5035188;28;20175;-66
2023/02/12 06:33:06;;;;;;;0.30;0.30;;;1.20;99.40;;;;;;5034640;28;20567;-66
2023/02/12 06:35:34;;;;;;;0.50;0.50;;;1.20;99.30;;;;;;5034699;28;20402;-67
2023/02/12 06:38:00;;;;;;;0.75;0.75;;;1.10;98.80;;;;;;5034832;28;20175;-66
2023/02/12 06:40:25;;;;;;;0.70;0.70;;;0.90;98.90;;;;;;5034705;28;20183;-66
2023/02/12 06:42:51;;;;;;;0.93;0.93;;;0.90;99.30;;;;;;5034454;28;20188;-67
2023/02/12 06:45:17;;;;;;;0.33;0.33;;;0.90;99.60;;;;;;5034505;28;20227;-66
2023/02/12 06:47:42;;;;;;;2.07;1.93;;;1.00;99.80;;;;;;5034244;28;20174;-66
2023/02/12 06:50:08;;;;;;;0.30;0.30;;;1.10;99.90;;;;;;5034241;28;20235;-66
2023/02/12 06:52:34;;;;;;;0.57;0.57;;;1.20;99.70;;;;;;5034237;28;20195;-66
2023/02/12 06:54:59;;;;;;;0.30;0.30;;;1.40;99.80;;;;;;5034412;28;20760;-66
2023/02/12 06:57:25;;;;;;;0.30;0.30;;;1.50;99.80;;;;;;5034020;28;20172;-66
2023/02/12 06:59:50;;;;;;;2.30;2.20;;;1.50;99.60;;;;;;5034183;28;20644;-67
2023/02/12 07:02:16;;;;;;;0.70;0.70;;;1.60;99.60;;;;;;5034049;28;20201;-66
2023/02/12 07:04:42;;;;;;;5.90;2.30;;;1.80;99.70;;;;;;5034457;28;20204;-67
2023/02/12 07:07:07;;;;;;;0.63;0.63;;;1.90;99.50;;;;;;5033851;28;20173;-66
2023/02/12 07:09:33;;;;;;;1.17;1.17;;;2.00;99.50;;;;;;5033998;28;20617;-66
2023/02/12 07:11:59;;;;;;;0.40;0.40;;;2.20;99.70;;;;;;5033823;28;20199;-66
2023/02/12 07:14:27;;;;;;;0.95;0.95;;;2.40;99.30;;;;;;5032567;28;20181;-66
2023/02/12 07:16:53;;;;;;;1.83;1.48;;;2.40;98.60;;;;;;5033762;28;20181;-67
2023/02/12 07:19:20;;;;;;;0.93;0.93;;;2.50;98.40;;;;;;5033912;28;20180;-66
2023/02/12 07:21:45;;;;;;;0.93;0.65;;;2.50;98.00;;;;;;5033865;28;20199;-66
2023/02/12 07:24:12;;;;;;;1.33;1.23;;;2.50;97.80;;;;;;5033868;28;20170;-66
2023/02/12 07:26:39;;;;;;;0.90;0.90;;;2.60;97.80;;;;;;5033608;28;20175;-66
2023/02/12 07:29:05;;;;;;;1.00;1.00;;;2.60;97.70;;;;;;5033573;28;20214;-67
2023/02/12 07:31:31;;;;;;;1.80;1.57;;;2.70;97.80;;;;;;5033627;28;20190;-66
2023/02/12 07:33:58;;;;;;;3.53;2.00;;;2.70;97.40;;;;;;5033621;28;20491;-67
2023/02/12 07:36:26;;;;;;;0.55;0.55;;;2.70;97.20;;;;;;5033504;28;20969;-67
2023/02/12 07:38:53;;;;;;;1.70;1.67;;;2.70;97.50;;;;;;5032463;28;20693;-66
2023/02/12 07:41:25;;;;;;;0.60;0.60;;;2.70;97.60;;;;;;5033208;28;20285;-66
2023/02/12 07:43:56;;;;;;;0.60;0.60;;;2.90;97.80;;;;;;5033370;28;20204;-68
2023/02/12 07:46:28;;;;;;;0.40;0.40;;;3.00;97.90;;;;;;5032051;28;20704;-68
2023/02/12 07:48:55;;;;;;;0.38;0.38;;;3.00;97.10;;;;;;5033457;28;20216;-68
2023/02/12 07:51:21;;;;;;;0.60;0.60;;;3.00;96.80;;;;;;5033999;28;20199;-67
2023/02/12 07:53:47;;;;;;;0.60;0.60;;;3.50;97.10;;;;;;5034136;28;20186;-69
2023/02/12 07:56:22;;;;;;;3.83;1.52;;;4.70;97.80;;;;;;5033230;28;20223;-69
2023/02/12 07:58:51;;;;;;;2.13;2.00;;;6.80;97.60;;;;;;5033678;28;20171;-69
2023/02/12 08:01:25;;;;;;;3.23;1.27;;;9.00;93.50;;;;;;5033507;28;20201;-69
2023/02/12 08:03:51;;;;;;;1.07;0.97;;;11.00;83.90;;;;;;5033982;28;20382;-69
2023/02/12 08:06:22;;;;;;;4.00;1.80;;;12.40;75.50;;;;;;5033264;28;20409;-70
2023/02/12 08:08:53;;;;;;;2.33;1.23;;;13.60;67.80;;;;;;5033625;28;20445;-70
2023/02/12 08:11:19;;;;;;;0.70;0.70;;;15.00;62.00;;;;;;5033461;28;20940;-70
2023/02/12 08:13:45;;;;;;;2.73;2.60;;;16.00;56.80;;;;;;5033347;28;20414;-71
2023/02/12 08:16:13;;;;;;;1.70;1.60;;;16.60;55.00;;;;;;5033477;28;20972;-69
2023/02/12 08:18:38;;;;;;;3.03;2.73;;;17.20;51.10;;;;;;5033785;28;20441;-69
2023/02/12 08:21:07;;;;;;;1.17;1.17;;;17.90;49.70;;;;;;5033143;28;20766;-69
2023/02/12 08:23:33;;;;;;;1.97;1.87;;;18.40;46.80;;;;;;5033383;28;20618;-69
2023/02/12 08:26:14;;;;;;;3.57;1.47;;;18.10;46.20;;;;;;5033200;28;20407;-69
2023/02/12 08:28:42;;;;;;;0.70;0.70;;;18.60;46.20;;;;;;5033114;28;20456;-69
2023/02/12 08:31:14;;;;;;;1.00;1.00;;;19.30;44.90;;;;;;5033635;28;20402;-69
2023/02/12 08:33:40;;;;;;;0.93;0.93;;;20.00;42.60;;;;;;5032768;28;20389;-70
2023/02/12 08:36:08;;;;;;;0.60;0.60;;;20.50;40.90;;;;;;5032999;28;20416;-69
2023/02/12 08:38:35;;;;;;;0.50;0.47;;;21.10;40.60;;;;;;5032278;28;20203;-69
2023/02/12 08:41:07;;;;;;;0.70;0.70;;;21.70;40.30;;;;;;5033308;28;20376;-69
2023/02/12 08:43:34;;;;;;;0.87;0.80;;;22.60;38.80;;;;;;5031483;28;20922;-71
2023/02/12 08:46:21;;;;;;;0.83;0.77;;;23.30;37.50;;;;;;5032000;28;20416;-71
2023/02/12 08:48:47;;;;;;;1.47;0.73;;;24.00;36.40;;;;;;5033199;28;20960;-71
2023/02/12 08:51:15;;;;;;;0.83;0.80;;;24.50;35.10;;;;;;5033278;28;20402;-71
2023/02/12 08:53:42;;;;;;;0.40;0.40;;;24.50;34.20;;;;;;5032117;28;20414;-72
2023/02/12 08:56:10;;;;;;;0.90;0.90;;;24.50;33.50;;;;;;5031937;28;20464;-72
2023/02/12 08:58:36;;;;;;;0.63;0.60;;;24.10;32.20;;;;;;5032926;28;20467;-71
2023/02/12 09:01:03;;;;;;;0.50;0.50;;;23.50;32.70;;;;;;5033504;28;20500;-72
2023/02/12 09:03:28;;;;;;;1.10;1.00;;;22.40;33.40;;;;;;5036638;28;20463;-71
2023/02/12 09:05:54;;;;;;;0.80;0.80;;;21.30;35.00;;;;;;5036557;28;20401;-69
2023/02/12 09:08:20;;;;;;;1.03;0.97;;;21.20;36.70;;;;;;5036811;28;20437;-69
2023/02/12 09:10:46;;;;;;;3.50;1.23;;;20.70;34.40;;;;;;5036894;28;20209;-71
2023/02/12 09:13:12;;;;;;;0.97;0.97;;;20.20;37.00;;;;;;5035653;28;20186;-69
2023/02/12 09:15:43;;;;;;;0.70;0.50;;;19.10;35.40;;;;;;5036147;28;20777;-69
2023/02/12 09:18:09;;;;;;;0.40;0.40;;;18.00;37.50;;;;;;5036284;28;20817;-69
2023/02/12 09:20:43;;;;;;;0.40;0.40;;;17.50;38.50;;;;;;5036144;28;20405;-69
2023/02/12 09:23:14;;;;;;;0.40;0.40;;;17.60;38.90;;;;;;5035357;28;20433;-69
2023/02/12 09:25:43;;;;;;;0.30;0.30;;;18.50;38.80;;;;;;5036478;28;20878;-70
2023/02/12 09:28:11;;;;;;;0.40;0.40;;;19.60;37.10;;;;;;5034114;28;20402;-69
2023/02/12 09:30:37;;;;;;;0.40;0.40;;;20.20;36.20;;;;;;5036026;28;20405;-69
2023/02/12 09:33:04;;;;;;;0.40;0.40;;;20.90;35.20;;;;;;5035110;28;20411;-69
2023/02/12 09:35:29;;;;;;;0.40;0.40;;;20.90;35.00;;;;;;5036006;28;20409;-69
2023/02/12 09:37:55;;;;;;;0.30;0.30;;;20.60;35.70;;;;;;5035470;28;20895;-70
2023/02/12 09:41:11;;;;;;;0.80;0.67;;;21.20;35.20;;;;;;5035504;28;20210;-72
2023/02/12 09:43:49;;;;;;;0.67;0.50;;;22.50;34.90;;;;;;5026017;28;20207;-72
2023/02/12 09:46:29;;;;;;;0.70;0.70;;;23.40;34.10;;;;;;5035383;28;20416;-72
2023/02/12 09:49:10;;;;;;;0.50;0.50;;;24.00;33.00;;;;;;5035442;28;20457;-72
2023/02/12 09:51:38;;;;;;;0.73;0.40;;;23.50;33.50;;;;;;5035696;28;20436;-72
2023/02/12 09:54:12;;;;;;;0.30;0.30;;;22.60;34.50;;;;;;5035941;28;20414;-72
2023/02/12 09:56:42;;;;;;;0.40;0.40;;;21.90;35.10;;;;;;5035573;28;20414;-71
2023/02/12 09:59:08;;;;;;;0.40;0.40;;;21.80;36.20;;;;;;5035431;28;20416;-72
2023/02/12 10:01:34;;;;;;;0.30;0.30;;;20.90;37.50;;;;;;5035309;28;20487;-71
2023/02/12 10:04:00;;;;;;;0.30;0.30;;;20.70;37.50;;;;;;5035262;28;20413;-71
2023/02/12 10:06:39;;;;;;;0.50;0.40;;;20.40;38.80;;;;;;5035122;28;20442;-72
2023/02/12 10:09:25;;;;;;;0.30;0.30;;;21.20;39.00;;;;;;5035236;28;20591;-72
2023/02/12 10:12:14;;;;;;;0.30;0.30;;;22.50;37.90;;;;;;5035339;28;20417;-71
2023/02/12 10:14:49;;;;;;;0.40;0.40;;;22.80;36.50;;;;;;5035237;28;20405;-72
2023/02/12 10:17:41;;;;;;;0.40;0.40;;;22.10;37.90;;;;;;5033737;28;20425;-71
2023/02/12 10:20:15;;;;;;;0.30;0.30;;;21.80;38.80;;;;;;5034972;28;20391;-71
2023/02/12 10:23:03;;;;;;;0.30;0.30;;;21.80;39.30;;;;;;5035272;28;20432;-72
2023/02/12 10:25:38;;;;;;;0.40;0.40;;;21.30;39.30;;;;;;5035479;28;20420;-72
2023/02/12 10:28:19;;;;;;;0.40;0.40;;;21.00;40.30;;;;;;5034872;28;20406;-71
2023/02/12 10:30:53;;;;;;;0.30;0.30;;;20.70;40.40;;;;;;5035171;28;20390;-72
2023/02/12 10:33:41;;;;;;;0.30;0.30;;;20.20;41.50;;;;;;5034801;28;20818;-72
2023/02/12 10:36:18;;;;;;;0.30;0.30;;;20.40;41.40;;;;;;5034735;28;20554;-72
2023/02/12 10:38:49;;;;;;;0.30;0.30;;;20.00;41.40;;;;;;5034819;28;20425;-71
2023/02/12 10:41:16;;;;;;;0.30;0.30;;;19.70;42.20;;;;;;5034890;28;20439;-70
2023/02/12 10:43:42;;;;;;;0.53;0.50;;;19.60;42.20;;;;;;5033284;28;20934;-71
2023/02/12 10:46:15;;;;;;;2.37;0.40;;;18.90;42.40;;;;;;5034876;28;20496;-71
2023/02/12 10:48:44;;;;;;;0.40;0.40;;;17.90;44.10;;;;;;5034796;28;20479;-69
2023/02/12 10:51:29;;;;;;;0.50;0.50;;;16.80;45.60;;;;;;5034063;28;20756;-69
2023/02/12 10:53:55;;;;;;;0.40;0.40;;;16.70;47.00;;;;;;5034366;28;20400;-69
2023/02/12 10:56:23;;;;;;;0.60;0.60;;;16.40;47.10;;;;;;5034330;28;20778;-69
2023/02/12 10:58:50;;;;;;;0.30;0.30;;;16.10;48.00;;;;;;5033018;28;20568;-69
2023/02/12 11:01:21;;;;;;;0.30;0.30;;;16.20;48.40;;;;;;5034038;28;20502;-69
2023/02/12 11:03:47;;;;;;;0.47;0.47;;;16.40;48.10;;;;;;5034119;28;20958;-69
2023/02/12 11:06:29;;;;;;;0.30;0.30;;;16.10;48.30;;;;;;5033914;28;20914;-69
2023/02/12 11:08:56;;;;;;;0.40;0.40;;;15.40;49.00;;;;;;5034048;28;20474;-69
2023/02/12 11:11:29;;;;;;;0.30;0.30;;;14.60;49.90;;;;;;5034119;28;20428;-69
2023/02/12 11:14:19;;;;;;;0.30;0.30;;;14.60;50.60;;;;;;5033960;28;20466;-69
2023/02/12 11:16:53;;;;;;;0.30;0.30;;;14.50;50.40;;;;;;5033361;28;20918;-69
2023/02/12 11:19:30;;;;;;;0.40;0.40;;;13.60;51.20;;;;;;5034009;28;20421;-69
2023/02/12 11:22:17;;;;;;;0.30;0.30;;;13.30;52.70;;;;;;5033901;28;20430;-69
2023/02/12 11:24:44;;;;;;;0.60;0.50;;;13.30;53.20;;;;;;5033807;28;20839;-69
2023/02/12 11:27:14;;;;;;;0.40;0.40;;;13.30;53.00;;;;;;5033026;28;20478;-69
2023/02/12 11:29:41;;;;;;;0.40;0.40;;;13.20;53.10;;;;;;5032063;28;20475;-69
2023/02/12 11:32:14;;;;;;;0.40;0.40;;;13.20;54.00;;;;;;5033032;28;20899;-69
2023/02/12 11:34:39;;;;;;;0.40;0.40;;;13.10;53.60;;;;;;5032417;28;20402;-69
2023/02/12 11:37:15;;;;;;;0.43;0.43;;;13.20;53.80;;;;;;5033454;28;20402;-69
2023/02/12 11:39:47;;;;;;;0.47;0.47;;;13.20;52.90;;;;;;5033668;28;20273;-69
2023/02/12 11:42:18;;;;;;;0.30;0.30;;;12.80;53.30;;;;;;5033518;28;20508;-69
2023/02/12 11:44:54;;;;;;;0.40;0.40;;;12.30;54.70;;;;;;5033662;28;20559;-69
2023/02/12 11:47:24;;;;;;;0.80;0.80;;;12.00;55.70;;;;;;5033556;28;20567;-69
2023/02/12 11:49:57;;;;;;;0.50;0.50;;;12.20;55.30;;;;;;5033599;28;20456;-69
2023/02/12 11:52:29;;;;;;;0.63;0.63;;;12.10;55.60;;;;;;5033336;28;20884;-69
2023/02/12 11:54:59;;;;;;;0.50;0.50;;;12.20;55.40;;;;;;5033758;28;20409;-69
2023/02/12 11:57:45;;;;;;;0.40;0.40;;;12.00;54.90;;;;;;5031931;28;20406;-69
2023/02/12 12:00:16;;;;;;;0.30;0.30;;;12.00;55.30;;;;;;5033405;28;20476;-69
2023/02/12 12:03:08;;;;;;;0.40;0.40;;;11.70;56.10;;;;;;5033275;28;20937;-68
2023/02/12 12:05:37;;;;;;;0.40;0.40;;;11.50;56.50;;;;;;5029425;28;20459;-69
2023/02/12 12:08:11;;;;;;;0.40;0.40;;;11.30;57.60;;;;;;5033250;28;20856;-69
2023/02/12 12:10:45;;;;;;;0.30;0.30;;;11.40;57.60;;;;;;5033516;28;20415;-69
2023/02/12 12:13:21;;;;;;;0.30;0.30;;;11.40;57.50;;;;;;5033215;28;20439;-69
2023/02/12 12:21:34;;;;;;;0.30;0.30;;;11.40;57.30;;;;;;5033167;28;20881;-68
2023/02/12 12:24:05;;;;;;;1.30;0.57;;;11.50;57.60;;;;;;5033219;28;20523;-69
2023/02/12 12:26:33;;;;;;;0.30;0.30;;;11.70;57.60;;;;;;5033100;28;20416;-69
2023/02/12 12:29:17;;;;;;;0.40;0.40;;;11.80;57.60;;;;;;5033014;28;20449;-69
2023/02/12 12:31:46;;;;;;;0.63;0.63;;;11.70;58.00;;;;;;5033029;28;20426;-69
2023/02/12 12:34:22;;;;;;;1.27;0.70;;;11.90;57.50;;;;;;5033775;28;20432;-69
2023/02/12 12:37:19;;;;;;;0.33;0.33;;;12.10;56.70;;;;;;5036859;28;20404;-68
2023/02/12 12:39:58;;;;;;;0.67;0.67;;;11.90;56.80;;;;;;5035684;28;20421;-69
2023/02/12 12:42:36;;;;;;;1.40;0.50;;;11.90;56.60;;;;;;5036782;28;20429;-69
2023/02/12 12:45:07;;;;;;;0.40;0.40;;;12.00;56.30;;;;;;5036903;28;20490;-69
2023/02/12 12:47:57;;;;;;;0.30;0.30;;;11.50;56.50;;;;;;5036551;28;20409;-69
2023/02/12 12:50:44;;;;;;;0.30;0.30;;;11.40;56.80;;;;;;5036713;28;20819;-69
2023/02/12 12:53:37;;;;;;;0.30;0.30;;;11.40;56.90;;;;;;5036652;28;20445;-69
2023/02/12 12:56:15;;;;;;;0.30;0.30;;;11.40;57.00;;;;;;5036865;28;20389;-69
2023/02/12 12:59:18;;;;;;;0.40;0.40;;;11.30;57.10;;;;;;5036647;28;20403;-69
2023/02/12 13:02:05;;;;;;;0.30;0.30;;;11.20;57.80;;;;;;5014474;28;21177;-69
2023/02/12 13:04:51;;;;;;;0.30;0.30;;;11.20;58.10;;;;;;5014636;28;20180;-69
2023/02/12 13:07:34;;;;;;;0.37;0.37;;;11.10;58.30;;;;;;5030675;28;20417;-69
2023/02/12 13:10:26;;;;;;;0.40;0.40;;;11.00;58.60;;;;;;5036289;28;20507;-69
2023/02/12 13:13:08;;;;;;;0.60;0.50;;;11.00;58.90;;;;;;5036175;28;20824;-69
2023/02/12 13:16:03;;;;;;;0.50;0.50;;;10.70;58.90;;;;;;5036416;28;20406;-68
2023/02/12 13:18:47;;;;;;;0.82;0.80;;;10.60;59.30;;;;;;5036361;28;20186;-69
2023/02/12 13:21:37;;;;;;;0.30;0.30;;;10.40;58.80;;;;;;5036274;28;20253;-69
2023/02/12 13:24:11;;;;;;;0.50;0.50;;;10.40;59.00;;;;;;5036181;28;20157;-68